MDT,Max TemperatureF,Mean TemperatureF,Min TemperatureF,Max Dew PointF,MeanDew PointF,Min DewpointF,Max Humidity, Mean Humidity, Min Humidity, Max Sea Level PressureIn, Mean Sea Level PressureIn, Min Sea Level PressureIn, Max VisibilityMiles, Mean VisibilityMiles, Min VisibilityMiles, Max Wind SpeedMPH, Mean Wind SpeedMPH, Max Gust SpeedMPH,PrecipitationIn, CloudCover, Events, WindDirDegrees
2012-9-1,94,78,61,54,49,43,72,45,18,30.02,29.89,29.78,10,10,10,31,9,38,0.00,1,Thunderstorm,194
2012-9-2,87,74,61,55,51,47,63,45,27,30.15,29.98,29.89,10,10,6,32,5,40,T,2,Rain-Thunderstorm,133
2012-9-3,91,74,57,50,41,26,67,39,10,30.04,29.96,29.89,10,10,10,17,4,23,0.00,0,,228
2012-9-4,92,73,54,43,29,14,51,29,6,30.06,29.95,29.86,10,10,10,16,3,21,0.00,0,,295
2012-9-5,92,73,53,28,20,12,30,18,5,30.00,29.91,29.84,10,10,10,16,3,22,0.00,0,,277
2012-9-6,92,75,58,51,29,20,49,29,9,29.92,29.85,29.76,10,10,6,33,8,39,T,0,Rain,246
2012-9-7,89,76,63,57,44,28,73,45,16,30.12,29.98,29.91,10,10,10,14,4,22,T,1,Rain,48
2012-9-8,87,74,60,27,23,18,25,17,8,30.11,30.03,29.96,10,10,10,17,6,26,0.00,0,,30
2012-9-9,89,70,51,39,30,17,29,22,14,30.09,29.99,29.88,10,10,10,12,4,15,0.00,0,,124
2012-9-10,90,75,60,43,37,33,37,26,14,29.92,29.85,29.74,10,10,10,15,6,18,0.00,0,,166
2012-9-11,75,67,59,61,53,39,93,61,29,30.10,29.91,29.80,10,9,1,25,5,29,0.22,6,Rain,296
2012-9-12,79,69,58,60,53,43,93,61,28,30.10,30.02,29.94,10,10,7,13,5,16,0.06,4,Rain,305
2012-9-13,84,67,49,49,32,17,77,43,9,30.35,30.19,30.09,10,10,10,18,5,24,0.00,0,,307
2012-9-14,84,65,45,38,32,23,61,36,11,30.34,30.18,30.09,10,10,10,12,4,16,0.00,0,,284
2012-9-15,87,67,46,34,27,18,50,29,8,30.18,30.08,29.98,10,10,10,12,2,15,0.00,0,,267
2012-9-16,88,68,48,28,23,17,42,25,7,30.07,29.96,29.86,10,10,10,15,2,20,0.00,0,,275
2012-9-17,85,70,54,31,22,12,33,20,7,30.04,29.91,29.83,10,10,10,23,6,28,0.00,0,,296
2012-9-18,84,66,47,27,21,10,42,24,6,30.10,30.03,29.95,10,10,10,15,4,20,0.00,0,,280
2012-9-19,86,65,43,21,15,10,31,19,6,30.16,30.04,29.98,10,10,10,10,2,13,0.00,0,,278
2012-9-20,84,64,44,18,16,13,28,18,8,30.17,30.02,29.95,10,10,10,13,3,16,0.00,0,,279
2012-9-21,87,65,43,21,16,14,29,18,7,30.08,30.00,29.93,10,10,10,12,4,15,0.00,0,,301
2012-9-22,88,66,44,21,17,13,27,17,6,30.09,30.00,29.94,10,10,10,14,3,17,0.00,0,,255
2012-9-23,84,69,53,34,25,16,22,18,13,30.07,29.98,29.92,10,10,10,23,8,33,0.00,1,,189
2012-9-24,81,69,57,51,44,33,56,40,23,30.10,29.93,29.78,10,10,10,22,10,25,0.01,4,Rain-Thunderstorm,71
2012-9-25,67,59,51,51,47,41,96,72,48,30.04,29.93,29.86,10,10,10,22,6,30,0.01,4,Thunderstorm,52
2012-9-26,66,59,52,49,47,42,89,67,44,30.07,30.01,29.94,10,10,10,12,5,14,0.03,6,Rain,68
2012-9-27,74,60,46,47,44,40,80,57,33,30.21,30.08,30.02,10,10,10,9,3,12,0.00,2,,312
2012-9-28,78,63,47,44,37,29,74,47,19,30.10,30.02,29.93,10,10,10,12,4,16,0.00,0,,276
2012-9-29,81,63,45,37,32,28,53,34,15,30.10,30.03,29.97,10,10,10,15,3,18,0.00,0,,16
2012-9-30,81,65,49,36,30,24,50,33,15,30.13,30.06,30.00,10,10,10,12,3,16,0.00,0,,285